Timeline UpdatesTrip UpdatesNews PostsPvt PostsTravel TipsAdmin PostsConv PostsFollowed PostsChat RequestsBlog PostsPNR Posts

Disclaimer
Search
 
 
Wed Jul 23, 2014 23:36:19 ISTHomeTrainsΣChainsAtlasPNRForumGalleryNewsFAQTripsMembersLoginFeedback
No Recent News for this Train
Other Trains in the News **new
Latest...
.
Tue Nov 12, 2013 (02:00PM)
⇐ Return Journey: Train# 14673

14674/Shaheed Express

Jan 22 2014 (6:51PM)
Change Departure Station:
Change Arrival Station:
Post a Train Travel TipPost a Train Travel Tip **new
Post a Comment/Question/Picture/VideoPost a Comment/Question/Picture/Video
Pantry/Catering
✕ NO Pantry Car
✓ Catering Avbl
Loco/Rake Reversals
SPJ/Samastipur Junction (9);
RSA - Rake Sharing
has an RSA with 14649/50 saryuyamuna express... ; Author: prashantsoni43
Rake/Coach Composition
LOCO-SLR-GEN-GEN-GEN-GEN-GEN-GEN-AB1-B1-S1-S2-S3-S4-S5-S6-S7-GEN-GEN-SLR
Loco
ASR-DLI: GZB WAP-4/1 WAP-7 DLI-JYG: TKD/LKO WDM-3A / TKD WDP-4
News    PNR    Forum    Time-Table    Availability    Fare Chart    Map    Arr/Dep History    Trips    Gallery    ΣChains    X/O    Timeline    
Travel Time: 8h 18m    18 halts    Distance: 445 km    Avg Speed: 53 km/hr
Type: Mail/Express
Zone: NR/Northern
Departs @ 11:55
Platform# 1
S T TF 
Amritsar Junction/ASR 
Arrives @ 20:13
Platform# ???
S T TF 
Delhi Sabzi Mandi/SZM 

18 halts. 70 intermediate Stations between Amritsar Junction and Delhi Sabzi Mandi

Show ALL intermediate Stations  Show Old Time-Table

#CodeStation NameX/OArrivesAvgDepartsAvgHaltPFDay#KmSpeedElevZoneAddress
1ASR»Amritsar Junction (5)»  -11:55-110.092233mNRAmritsar 143002, Punjab
2BEASBeas Junction (2)  12:23-12:25-2m2143.061238mNRBeas, Punjab
3KREKartarpur (2)  12:46-12:48-2m1164.552236mNRKartarpur, Punjab
4JUCJalandhar City Junction (5)X  13:05-13:10-5m2179.126239mNRJalandhar 144001, Punjab
5JRCJalandhar Cantt. Junction (3)  13:21-13:23-2m2184.065239mNRNear Rama Mandi, Punjab
6PGWPhagwara Junction (3)  13:38-13:40-2m11100.375245mNRPhagwara, Punjab
7PHRPhillaur Junction (3)X  13:58-14:00-2m11122.852246mNRPhillaur, Punjab
8LDHLudhiana Junction (7)X  14:15-14:25-10m11135.939246mNRLudhiana 141001, Punjab
9DOADoraha (2)  15:00-15:02-2m21158.481261mNRDoraha, Punjab
10KNNKhanna (3)  15:17-15:19-2m21178.861269mNRNH 1, Punjab
11GVGMandi Gobindgarh (2)  15:27-15:29-2m11186.953268mNRMandi Gobindgarh, Punjab
12SIRSirhind Junction (3)X  15:40-15:42-2m21196.788271mNRSirhind, Punjab
13RPJRajpura Junction (3)X  15:59-16:01-2m21221.559272mNRNH-1, Punjab
14UBCAmbala City (3)XO  16:22-16:24-2m11242.013273mNRNH-1, Haryana
15UMBAmbala Cantt. Junction (7)X  17:00-17:10-10m21249.668278mNRAmbala 133001, Haryana
16KKDEKurukshetra Junction (3)X  17:47-17:49-2m31291.674260mNRKurukshetra, Haryana
17KUNKarnal (3)X  18:16-18:18-2m--1324.767253mNRKarnal, Haryana
18PNPPanipat Junction (5)  18:49-18:51-2m21359.180235mNRPanipat, Haryana
19SNPSonipat (3)  19:25-19:27-2m11404.353225mNRSonipat, Haryana
20SZM•Delhi Sabzi Mandi (2)•  20:13-20:15-2m--1444.76220mNRGulabi Bagh, Delhi NCT
21DLIOld Delhi Junction (16)X20:45-21:15-30m121447.624219mNRNear Chandni Chowk Metro Station, Delhi NCT
22GZBGhaziabad Junction (6)  22:05-22:07-2m11467.758217mNRGhaziabad, Uttar Pradesh
23HPUHapur Junction (4)  22:45-22:48-3m--1504.473214mNRHapur Jn., Uttar Pradesh
24AMROAmroha (3)X  23:48-23:50-2m11577.941217mNRAmroha, Uttar Pradesh
25MBMoradabad Junction (7)X  00:35-00:45-10m32608.455201mNRMoradabad, Uttar Pradesh
26RMURampur Junction (3)X  01:15-01:17-2m--2635.765190mNRRampur, Uttar Pradesh
27BEBareilly Junction (4)X  02:15-02:20-5m--2698.765174mNRBareilly, Uttar Pradesh
28SPNShahjahanpur Junction (3)X  03:25-03:30-5m--2769.262156mNRShahjahanpur, Uttar Pradesh
29LKOLucknow Charbagh (9)X  06:10-06:40-30m32934.140123mNR226004, Uttar Pradesh
30BBKBarabanki Junction (4)X  07:23-07:25-2m--2962.667122mNRPin-225001, Uttar Pradesh
31GDGonda Junction (3)X  08:45-08:55-10m221051.973110mNERGonda 271001, Uttar Pradesh
32MURMankapur Junction (5)  09:18-09:20-2m--21079.874104mNERDistrict Gonda, Uttar Pradesh
33BVBabhnan (2)X  09:44-09:46-2m--21109.664101mNERDistrict- Basti, Uttar Pradesh
34BSTBasti (4)  10:15-10:20-5m--21140.47790mNERBasti 272001, Uttar Pradesh
35KLDKhalilabad (3)X  10:43-10:45-2m221169.92986mNERKhalilabad- 272175, Uttar Pradesh
36GKPGorakhpur Junction (10)X  11:55-12:15-20m521203.86984mNERGorakhpur 273001, Uttar Pradesh
37DEOSDeoria Sadar (3)  12:58-13:00-2m--21253.05079mNERDeoria- 274001, Uttar Pradesh
38BTTBhatni Junction (5)X  13:25-13:30-5m--21273.77073mNERDeoria, Uttar Pradesh
39BHTRBhatpar Rani (2)X  13:41-13:43-2m--21286.63573mNERDeoria, Uttar Pradesh
40MWMairwa (2)  14:08-14:10-2m221301.23273mNERMairwa, Bihar
41SVSiwan Junction (4)X  14:50-14:55-5m--21322.43570mNERSiwan, Bihar
42CPRChhapra Junction (6)X  16:40-17:00-20m--21383.76058mNERDistt: Saran, Bihar
43SEESonpur Junction (4)  17:54-17:59-5m--21437.72556mECRSaran, Bihar
44HJPHajipur Junction (3)X  18:12-18:14-2m221443.24555mECR06224-272230, Bihar
45MFPMuzaffarpur Junction (6)X  19:25-19:35-10m321497.03557mECRMuzaffarpur, Bihar
46SPJSamastipur Junction (9)O21:05-21:35-30m--21549.25755mECRSamastipur, Bihar
47HYTHaiaghatXO  21:58-22:00-2m--21571.22551mECRDarbhanga, Bihar
48LSILaheria Sarai (1)  22:25-22:30-5m121581.63052mECRDarbhanga, Bihar
49DBGDarbhanga Junction (5)X  22:40-22:50-10m121586.62754mECRDarbhanga, Bihar
50KKHTKakarghatti  23:04-23:06-2m--21592.94454mECRDarbhanga, Bihar
51TRSTarsarai  23:15-23:17-2m--21599.53154mECRDarbhanga, Bihar
52SKISakri Junction (5)  23:30-23:35-5m--21606.23955mECRMadhubani, Bihar
53PDWPandaul  23:47-23:49-2m--21614.02059mECRMadhubani, Bihar
54MBIMadhubani (3)  00:16-00:18-2m--31623.04662mECRMadhubani, Bihar
55RJARajanagar  00:31-00:33-2m--31633.03765mECRRajnagar Distt: Madhubani, Bihar
56KJIKhajauli  00:48-00:50-2m--31642.21870mECRMadhubani, Bihar
57JYGJaynagar (3)  01:30--131654.3-68mECRDistt: Madhubani, Bihar
Scroll to Top
Scroll to Bottom